sensor_id;sensor_type;location;lat;lon;timestamp;temperature;humidity
16995;DHT22;8614;48.522;9.206;2022-12-20T03:02:51;2.40;99.90
16995;DHT22;8614;48.522;9.206;2022-12-20T03:05:44;2.40;99.90
16995;DHT22;8614;48.522;9.206;2022-12-20T03:08:12;2.40;99.90
16995;DHT22;8614;48.522;9.206;2022-12-20T03:10:40;2.40;99.90
16995;DHT22;8614;48.522;9.206;2022-12-20T03:13:07;2.40;99.90
16995;DHT22;8614;48.522;9.206;2022-12-20T03:15:37;2.40;99.90
16995;DHT22;8614;48.522;9.206;2022-12-20T03:18:05;2.40;99.90
16995;DHT22;8614;48.522;9.206;2022-12-20T03:20:32;2.40;99.90
16995;DHT22;8614;48.522;9.206;2022-12-20T03:22:59;2.40;99.90
16995;DHT22;8614;48.522;9.206;2022-12-20T03:25:27;2.40;99.90
16995;DHT22;8614;48.522;9.206;2022-12-20T03:27:55;2.40;99.90
16995;DHT22;8614;48.522;9.206;2022-12-20T03:30:23;2.40;99.90
16995;DHT22;8614;48.522;9.206;2022-12-20T03:32:50;2.40;99.90
16995;DHT22;8614;48.522;9.206;2022-12-20T03:35:19;2.40;99.90
16995;DHT22;8614;48.522;9.206;2022-12-20T03:37:45;2.40;99.90
16995;DHT22;8614;48.522;9.206;2022-12-20T03:40:13;2.40;99.90
16995;DHT22;8614;48.522;9.206;2022-12-20T03:42:40;2.40;99.90
16995;DHT22;8614;48.522;9.206;2022-12-20T03:45:08;2.40;99.90
16995;DHT22;8614;48.522;9.206;2022-12-20T03:47:35;2.40;99.90
16995;DHT22;8614;48.522;9.206;2022-12-20T03:50:05;2.40;99.90
16995;DHT22;8614;48.522;9.206;2022-12-20T03:52:35;2.40;99.90
16995;DHT22;8614;48.522;9.206;2022-12-20T03:55:04;2.40;99.90
16995;DHT22;8614;48.522;9.206;2022-12-20T03:57:38;2.40;99.90
16995;DHT22;8614;48.522;9.206;2022-12-20T04:00:20;2.40;99.90
16995;DHT22;8614;48.522;9.206;2022-12-20T04:02:51;2.40;99.90
16995;DHT22;8614;48.522;9.206;2022-12-20T04:05:18;2.40;99.90
16995;DHT22;8614;48.522;9.206;2022-12-20T04:07:47;2.50;99.90
16995;DHT22;8614;48.522;9.206;2022-12-20T04:10:14;2.50;99.90
16995;DHT22;8614;48.522;9.206;2022-12-20T04:12:41;2.50;99.90
16995;DHT22;8614;48.522;9.206;2022-12-20T04:15:10;2.60;99.90
16995;DHT22;8614;48.522;9.206;2022-12-20T04:17:39;2.70;99.90
16995;DHT22;8614;48.522;9.206;2022-12-20T04:20:11;2.70;99.90
16995;DHT22;8614;48.522;9.206;2022-12-20T04:22:50;2.80;99.90
16995;DHT22;8614;48.522;9.206;2022-12-20T04:25:19;2.80;99.90
16995;DHT22;8614;48.522;9.206;2022-12-20T04:27:47;2.90;99.90
16995;DHT22;8614;48.522;9.206;2022-12-20T04:30:14;2.90;99.90
16995;DHT22;8614;48.522;9.206;2022-12-20T04:32:41;2.90;99.90
16995;DHT22;8614;48.522;9.206;2022-12-20T04:35:09;2.90;99.90
16995;DHT22;8614;48.522;9.206;2022-12-20T04:37:40;2.90;99.90
16995;DHT22;8614;48.522;9.206;2022-12-20T04:40:09;2.80;99.90
16995;DHT22;8614;48.522;9.206;2022-12-20T04:42:48;2.80;99.90
16995;DHT22;8614;48.522;9.206;2022-12-20T04:45:16;2.80;99.90
16995;DHT22;8614;48.522;9.206;2022-12-20T04:47:43;2.70;99.90
16995;DHT22;8614;48.522;9.206;2022-12-20T04:50:12;2.70;99.90
16995;DHT22;8614;48.522;9.206;2022-12-20T04:52:41;2.70;99.90
16995;DHT22;8614;48.522;9.206;2022-12-20T04:55:27;2.80;99.90
16995;DHT22;8614;48.522;9.206;2022-12-20T04:57:56;2.80;99.90
16995;DHT22;8614;48.522;9.206;2022-12-20T05:00:24;2.90;99.90
16995;DHT22;8614;48.522;9.206;2022-12-20T05:02:58;2.90;99.90
16995;DHT22;8614;48.522;9.206;2022-12-20T05:05:26;3.00;99.90
16995;DHT22;8614;48.522;9.206;2022-12-20T05:07:56;3.10;99.90
16995;DHT22;8614;48.522;9.206;2022-12-20T05:10:24;3.10;99.90
16995;DHT22;8614;48.522;9.206;2022-12-20T05:12:54;3.10;99.90
16995;DHT22;8614;48.522;9.206;2022-12-20T05:15:31;3.20;99.90
16995;DHT22;8614;48.522;9.206;2022-12-20T05:17:58;3.20;99.90
16995;DHT22;8614;48.522;9.206;2022-12-20T05:20:33;3.20;99.90
16995;DHT22;8614;48.522;9.206;2022-12-20T05:23:01;3.30;99.90
16995;DHT22;8614;48.522;9.206;2022-12-20T05:25:50;3.30;99.90
16995;DHT22;8614;48.522;9.206;2022-12-20T05:28:36;3.30;99.90
16995;DHT22;8614;48.522;9.206;2022-12-20T05:31:03;3.30;99.90
16995;DHT22;8614;48.522;9.206;2022-12-20T05:33:33;3.30;99.90
16995;DHT22;8614;48.522;9.206;2022-12-20T05:36:02;3.30;99.90
16995;DHT22;8614;48.522;9.206;2022-12-20T05:38:29;3.30;99.90
16995;DHT22;8614;48.522;9.206;2022-12-20T05:40:57;3.30;99.90
16995;DHT22;8614;48.522;9.206;2022-12-20T05:43:25;3.30;99.90
16995;DHT22;8614;48.522;9.206;2022-12-20T05:45:53;3.30;99.90
16995;DHT22;8614;48.522;9.206;2022-12-20T05:48:29;3.40;99.90
16995;DHT22;8614;48.522;9.206;2022-12-20T05:50:56;3.30;99.90
16995;DHT22;8614;48.522;9.206;2022-12-20T05:53:31;3.30;99.90
16995;DHT22;8614;48.522;9.206;2022-12-20T05:56:02;3.30;99.90
16995;DHT22;8614;48.522;9.206;2022-12-20T05:58:32;3.30;99.90
16995;DHT22;8614;48.522;9.206;2022-12-20T06:01:05;3.30;99.90
16995;DHT22;8614;48.522;9.206;2022-12-20T06:03:36;3.30;99.90
16995;DHT22;8614;48.522;9.206;2022-12-20T06:06:08;3.30;99.90
16995;DHT22;8614;48.522;9.206;2022-12-20T06:08:35;3.30;99.90
16995;DHT22;8614;48.522;9.206;2022-12-20T06:11:06;3.30;99.90
16995;DHT22;8614;48.522;9.206;2022-12-20T06:13:42;3.30;99.90
16995;DHT22;8614;48.522;9.206;2022-12-20T06:16:11;3.30;99.90
16995;DHT22;8614;48.522;9.206;2022-12-20T06:18:38;3.30;99.90
16995;DHT22;8614;48.522;9.206;2022-12-20T06:21:05;3.30;99.90
16995;DHT22;8614;48.522;9.206;2022-12-20T06:23:32;3.30;99.90
16995;DHT22;8614;48.522;9.206;2022-12-20T06:26:06;3.30;99.90
16995;DHT22;8614;48.522;9.206;2022-12-20T06:28:37;3.30;99.90
16995;DHT22;8614;48.522;9.206;2022-12-20T06:31:08;3.30;99.90
16995;DHT22;8614;48.522;9.206;2022-12-20T06:33:43;3.40;99.90
16995;DHT22;8614;48.522;9.206;2022-12-20T06:36:12;3.40;99.90
16995;DHT22;8614;48.522;9.206;2022-12-20T06:38:39;3.40;99.90
16995;DHT22;8614;48.522;9.206;2022-12-20T06:41:06;3.50;99.90
16995;DHT22;8614;48.522;9.206;2022-12-20T06:43:33;3.50;99.90
16995;DHT22;8614;48.522;9.206;2022-12-20T06:46:00;3.50;99.90
16995;DHT22;8614;48.522;9.206;2022-12-20T06:48:26;3.50;99.90
16995;DHT22;8614;48.522;9.206;2022-12-20T06:50:55;3.50;99.90
16995;DHT22;8614;48.522;9.206;2022-12-20T06:53:23;3.50;99.90
16995;DHT22;8614;48.522;9.206;2022-12-20T06:55:50;3.50;99.90
16995;DHT22;8614;48.522;9.206;2022-12-20T06:58:18;3.60;99.90
16995;DHT22;8614;48.522;9.206;2022-12-20T07:00:47;3.60;99.90
16995;DHT22;8614;48.522;9.206;2022-12-20T07:03:14;3.60;99.90
16995;DHT22;8614;48.522;9.206;2022-12-20T07:05:41;3.60;99.90
16995;DHT22;8614;48.522;9.206;2022-12-20T07:08:09;3.60;99.90
16995;DHT22;8614;48.522;9.206;2022-12-20T07:10:36;3.60;99.90
16995;DHT22;8614;48.522;9.206;2022-12-20T07:13:03;3.60;99.90
16995;DHT22;8614;48.522;9.206;2022-12-20T07:15:30;3.60;99.90
16995;DHT22;8614;48.522;9.206;2022-12-20T07:17:57;3.60;99.90
16995;DHT22;8614;48.522;9.206;2022-12-20T07:20:24;3.70;99.90
16995;DHT22;8614;48.522;9.206;2022-12-20T07:22:51;3.70;99.90
16995;DHT22;8614;48.522;9.206;2022-12-20T07:25:19;3.70;99.90
16995;DHT22;8614;48.522;9.206;2022-12-20T07:27:46;3.80;99.90
16995;DHT22;8614;48.522;9.206;2022-12-20T07:30:14;3.80;99.90
16995;DHT22;8614;48.522;9.206;2022-12-20T07:32:41;3.90;99.90
16995;DHT22;8614;48.522;9.206;2022-12-20T07:35:09;3.80;99.90
16995;DHT22;8614;48.522;9.206;2022-12-20T07:37:36;3.80;99.90
16995;DHT22;8614;48.522;9.206;2022-12-20T07:40:04;3.80;99.90
16995;DHT22;8614;48.522;9.206;2022-12-20T07:42:32;3.90;99.90
16995;DHT22;8614;48.522;9.206;2022-12-20T07:44:59;3.90;99.90
16995;DHT22;8614;48.522;9.206;2022-12-20T07:47:27;3.90;99.90
16995;DHT22;8614;48.522;9.206;2022-12-20T07:49:54;3.90;99.90
16995;DHT22;8614;48.522;9.206;2022-12-20T07:52:23;3.90;99.90
16995;DHT22;8614;48.522;9.206;2022-12-20T07:54:55;4.00;99.90
16995;DHT22;8614;48.522;9.206;2022-12-20T07:57:26;4.10;99.90
16995;DHT22;8614;48.522;9.206;2022-12-20T07:59:58;4.10;99.90
16995;DHT22;8614;48.522;9.206;2022-12-20T08:02:30;4.20;99.90
16995;DHT22;8614;48.522;9.206;2022-12-20T08:04:58;4.20;99.90
16995;DHT22;8614;48.522;9.206;2022-12-20T08:07:26;4.30;99.90
16995;DHT22;8614;48.522;9.206;2022-12-20T08:09:54;4.30;99.90
16995;DHT22;8614;48.522;9.206;2022-12-20T08:12:21;4.40;99.90
16995;DHT22;8614;48.522;9.206;2022-12-20T08:14:49;4.30;99.90
16995;DHT22;8614;48.522;9.206;2022-12-20T08:17:22;4.40;99.90
16995;DHT22;8614;48.522;9.206;2022-12-20T08:19:48;4.30;99.90
16995;DHT22;8614;48.522;9.206;2022-12-20T08:22:16;4.30;99.90
16995;DHT22;8614;48.522;9.206;2022-12-20T08:24:43;4.30;99.90
16995;DHT22;8614;48.522;9.206;2022-12-20T08:27:10;4.30;99.90
16995;DHT22;8614;48.522;9.206;2022-12-20T08:29:37;4.30;99.90
16995;DHT22;8614;48.522;9.206;2022-12-20T08:32:04;4.30;99.90
16995;DHT22;8614;48.522;9.206;2022-12-20T08:34:32;4.30;99.90
16995;DHT22;8614;48.522;9.206;2022-12-20T08:36:59;4.40;99.90
16995;DHT22;8614;48.522;9.206;2022-12-20T08:39:26;4.40;99.90
16995;DHT22;8614;48.522;9.206;2022-12-20T08:41:53;4.50;99.90
16995;DHT22;8614;48.522;9.206;2022-12-20T08:44:20;4.50;99.90
16995;DHT22;8614;48.522;9.206;2022-12-20T08:46:47;4.50;99.90
16995;DHT22;8614;48.522;9.206;2022-12-20T08:49:14;4.50;99.90
16995;DHT22;8614;48.522;9.206;2022-12-20T08:51:42;4.60;99.90
16995;DHT22;8614;48.522;9.206;2022-12-20T08:54:09;4.60;99.90
16995;DHT22;8614;48.522;9.206;2022-12-20T08:56:36;4.60;99.90
16995;DHT22;8614;48.522;9.206;2022-12-20T08:59:02;4.60;99.90
16995;DHT22;8614;48.522;9.206;2022-12-20T09:01:29;4.60;99.90
16995;DHT22;8614;48.522;9.206;2022-12-20T09:03:58;4.70;99.90
16995;DHT22;8614;48.522;9.206;2022-12-20T09:06:25;4.70;99.90
16995;DHT22;8614;48.522;9.206;2022-12-20T09:08:53;4.80;99.90
16995;DHT22;8614;48.522;9.206;2022-12-20T09:11:22;4.80;99.90
16995;DHT22;8614;48.522;9.206;2022-12-20T09:13:51;4.80;99.90
16995;DHT22;8614;48.522;9.206;2022-12-20T09:16:20;4.90;99.90
16995;DHT22;8614;48.522;9.206;2022-12-20T09:18:48;4.90;99.90
16995;DHT22;8614;48.522;9.206;2022-12-20T09:21:15;5.00;99.90
16995;DHT22;8614;48.522;9.206;2022-12-20T09:23:42;5.10;99.90
16995;DHT22;8614;48.522;9.206;2022-12-20T09:26:12;5.10;99.90
16995;DHT22;8614;48.522;9.206;2022-12-20T09:28:39;5.20;99.90
16995;DHT22;8614;48.522;9.206;2022-12-20T09:31:09;5.20;99.90
16995;DHT22;8614;48.522;9.206;2022-12-20T09:33:36;5.20;99.90
16995;DHT22;8614;48.522;9.206;2022-12-20T09:36:04;5.30;99.90
16995;DHT22;8614;48.522;9.206;2022-12-20T09:38:32;5.40;99.90
16995;DHT22;8614;48.522;9.206;2022-12-20T09:41:01;5.50;99.90
16995;DHT22;8614;48.522;9.206;2022-12-20T09:43:31;5.60;99.90
16995;DHT22;8614;48.522;9.206;2022-12-20T09:46:00;5.70;99.90
16995;DHT22;8614;48.522;9.206;2022-12-20T09:48:29;5.90;99.90
16995;DHT22;8614;48.522;9.206;2022-12-20T09:51:05;6.00;99.90
16995;DHT22;8614;48.522;9.206;2022-12-20T09:53:40;6.20;99.90
16995;DHT22;8614;48.522;9.206;2022-12-20T09:56:14;6.30;99.90
16995;DHT22;8614;48.522;9.206;2022-12-20T09:58:56;6.40;99.90
16995;DHT22;8614;48.522;9.206;2022-12-20T10:01:27;6.50;99.90
16995;DHT22;8614;48.522;9.206;2022-12-20T10:03:56;6.60;99.90
16995;DHT22;8614;48.522;9.206;2022-12-20T10:06:32;6.60;99.90
16995;DHT22;8614;48.522;9.206;2022-12-20T10:09:03;6.60;99.90
16995;DHT22;8614;48.522;9.206;2022-12-20T10:11:44;6.60;99.90
16995;DHT22;8614;48.522;9.206;2022-12-20T10:14:28;6.80;99.90
16995;DHT22;8614;48.522;9.206;2022-12-20T10:17:01;6.80;99.90
16995;DHT22;8614;48.522;9.206;2022-12-20T10:19:52;6.90;99.90
16995;DHT22;8614;48.522;9.206;2022-12-20T10:22:24;6.90;99.90
16995;DHT22;8614;48.522;9.206;2022-12-20T10:24:57;6.80;99.90
16995;DHT22;8614;48.522;9.206;2022-12-20T10:27:24;6.80;99.90
16995;DHT22;8614;48.522;9.206;2022-12-20T10:29:52;6.70;99.90
16995;DHT22;8614;48.522;9.206;2022-12-20T10:32:22;6.60;99.90
16995;DHT22;8614;48.522;9.206;2022-12-20T10:34:53;6.40;99.90
16995;DHT22;8614;48.522;9.206;2022-12-20T10:37:21;6.30;99.90
16995;DHT22;8614;48.522;9.206;2022-12-20T10:39:49;6.20;99.90
16995;DHT22;8614;48.522;9.206;2022-12-20T10:42:28;6.20;99.90
16995;DHT22;8614;48.522;9.206;2022-12-20T10:44:57;6.10;99.90
16995;DHT22;8614;48.522;9.206;2022-12-20T10:47:36;6.10;99.90
16995;DHT22;8614;48.522;9.206;2022-12-20T10:50:11;6.00;99.90
16995;DHT22;8614;48.522;9.206;2022-12-20T10:52:39;6.00;99.90
16995;DHT22;8614;48.522;9.206;2022-12-20T10:55:34;5.90;99.90
16995;DHT22;8614;48.522;9.206;2022-12-20T10:58:03;5.90;99.90
16995;DHT22;8614;48.522;9.206;2022-12-20T11:00:32;5.90;99.90
16995;DHT22;8614;48.522;9.206;2022-12-20T11:03:10;5.90;99.90
16995;DHT22;8614;48.522;9.206;2022-12-20T11:05:37;5.90;99.90
16995;DHT22;8614;48.522;9.206;2022-12-20T11:08:12;5.90;99.90
16995;DHT22;8614;48.522;9.206;2022-12-20T11:10:39;6.00;99.90
16995;DHT22;8614;48.522;9.206;2022-12-20T11:13:20;6.00;99.90
16995;DHT22;8614;48.522;9.206;2022-12-20T11:15:49;6.00;99.90
16995;DHT22;8614;48.522;9.206;2022-12-20T11:18:22;6.00;99.90
16995;DHT22;8614;48.522;9.206;2022-12-20T11:20:59;6.00;99.90
16995;DHT22;8614;48.522;9.206;2022-12-20T11:23:34;6.10;99.90
16995;DHT22;8614;48.522;9.206;2022-12-20T11:26:15;6.10;99.90
16995;DHT22;8614;48.522;9.206;2022-12-20T11:28:54;6.20;99.90
16995;DHT22;8614;48.522;9.206;2022-12-20T11:31:35;6.20;99.90
16995;DHT22;8614;48.522;9.206;2022-12-20T11:34:16;6.30;99.90
16995;DHT22;8614;48.522;9.206;2022-12-20T11:37:08;6.40;99.90
16995;DHT22;8614;48.522;9.206;2022-12-20T11:39:59;6.50;99.90
16995;DHT22;8614;48.522;9.206;2022-12-20T11:42:37;6.60;99.90
16995;DHT22;8614;48.522;9.206;2022-12-20T11:45:14;6.60;99.90
16995;DHT22;8614;48.522;9.206;2022-12-20T11:48:01;6.70;99.90
16995;DHT22;8614;48.522;9.206;2022-12-20T11:50:41;6.70;99.90
16995;DHT22;8614;48.522;9.206;2022-12-20T11:53:17;6.80;99.90
16995;DHT22;8614;48.522;9.206;2022-12-20T11:55:48;6.90;99.90
16995;DHT22;8614;48.522;9.206;2022-12-20T11:58:19;6.90;99.90
16995;DHT22;8614;48.522;9.206;2022-12-20T12:00:53;7.00;99.90
16995;DHT22;8614;48.522;9.206;2022-12-20T12:03:27;7.10;99.90
16995;DHT22;8614;48.522;9.206;2022-12-20T12:05:59;7.10;99.90
16995;DHT22;8614;48.522;9.206;2022-12-20T12:08:33;7.10;99.90
16995;DHT22;8614;48.522;9.206;2022-12-20T12:11:07;7.00;99.90
16995;DHT22;8614;48.522;9.206;2022-12-20T12:13:39;6.90;99.90
16995;DHT22;8614;48.522;9.206;2022-12-20T12:16:09;6.80;99.90
16995;DHT22;8614;48.522;9.206;2022-12-20T12:18:39;6.80;99.90
16995;DHT22;8614;48.522;9.206;2022-12-20T12:21:10;6.80;99.90
16995;DHT22;8614;48.522;9.206;2022-12-20T12:23:47;6.70;99.90
16995;DHT22;8614;48.522;9.206;2022-12-20T12:26:19;6.80;99.90
16995;DHT22;8614;48.522;9.206;2022-12-20T12:28:50;6.90;99.90
16995;DHT22;8614;48.522;9.206;2022-12-20T12:31:24;7.10;99.90
16995;DHT22;8614;48.522;9.206;2022-12-20T12:34:02;7.30;99.90
16995;DHT22;8614;48.522;9.206;2022-12-20T12:37:04;7.50;99.90
16995;DHT22;8614;48.522;9.206;2022-12-20T12:39:52;7.60;99.90
16995;DHT22;8614;48.522;9.206;2022-12-20T12:45:27;7.70;99.90
16995;DHT22;8614;48.522;9.206;2022-12-20T12:47:57;7.70;99.90
16995;DHT22;8614;48.522;9.206;2022-12-20T12:50:30;7.70;99.90
16995;DHT22;8614;48.522;9.206;2022-12-20T12:53:04;7.70;99.90
16995;DHT22;8614;48.522;9.206;2022-12-20T12:55:39;7.60;99.90
16995;DHT22;8614;48.522;9.206;2022-12-20T12:58:29;7.60;99.90
16995;DHT22;8614;48.522;9.206;2022-12-20T13:00:57;7.60;99.90
16995;DHT22;8614;48.522;9.206;2022-12-20T13:03:40;7.50;99.90
16995;DHT22;8614;48.522;9.206;2022-12-20T13:06:50;7.50;99.90
16995;DHT22;8614;48.522;9.206;2022-12-20T13:09:21;7.50;99.90
16995;DHT22;8614;48.522;9.206;2022-12-20T13:18:27;7.30;99.90
16995;DHT22;8614;48.522;9.206;2022-12-20T13:21:30;7.10;99.90
16995;DHT22;8614;48.522;9.206;2022-12-20T13:27:34;7.10;99.90
16995;DHT22;8614;48.522;9.206;2022-12-20T13:30:25;7.10;99.90
16995;DHT22;8614;48.522;9.206;2022-12-20T13:36:00;7.00;99.90
16995;DHT22;8614;48.522;9.206;2022-12-20T13:38:52;7.00;99.90
16995;DHT22;8614;48.522;9.206;2022-12-20T13:41:40;7.00;99.90
16995;DHT22;8614;48.522;9.206;2022-12-20T13:44:32;6.90;99.90
16995;DHT22;8614;48.522;9.206;2022-12-20T13:47:05;6.90;99.90
16995;DHT22;8614;48.522;9.206;2022-12-20T13:49:35;6.90;99.90
16995;DHT22;8614;48.522;9.206;2022-12-20T13:52:15;6.90;99.90
16995;DHT22;8614;48.522;9.206;2022-12-20T13:54:45;6.90;99.90
16995;DHT22;8614;48.522;9.206;2022-12-20T13:57:15;6.80;99.90
16995;DHT22;8614;48.522;9.206;2022-12-20T13:59:46;6.80;99.90
16995;DHT22;8614;48.522;9.206;2022-12-20T14:02:18;6.80;99.90
16995;DHT22;8614;48.522;9.206;2022-12-20T14:04:52;6.90;99.90
16995;DHT22;8614;48.522;9.206;2022-12-20T14:07:22;6.90;99.90
16995;DHT22;8614;48.522;9.206;2022-12-20T14:09:55;7.00;99.90
16995;DHT22;8614;48.522;9.206;2022-12-20T14:12:22;7.00;99.90
16995;DHT22;8614;48.522;9.206;2022-12-20T14:14:50;7.10;99.90
16995;DHT22;8614;48.522;9.206;2022-12-20T14:17:22;7.20;99.90
16995;DHT22;8614;48.522;9.206;2022-12-20T14:20:05;7.30;99.90
16995;DHT22;8614;48.522;9.206;2022-12-20T14:22:33;7.40;99.90
16995;DHT22;8614;48.522;9.206;2022-12-20T14:25:01;7.50;99.90
16995;DHT22;8614;48.522;9.206;2022-12-20T14:27:33;7.50;99.90
16995;DHT22;8614;48.522;9.206;2022-12-20T14:30:03;7.50;99.90
16995;DHT22;8614;48.522;9.206;2022-12-20T14:32:31;7.40;99.90
16995;DHT22;8614;48.522;9.206;2022-12-20T14:34:58;7.40;99.90
16995;DHT22;8614;48.522;9.206;2022-12-20T14:37:29;7.30;99.90
16995;DHT22;8614;48.522;9.206;2022-12-20T14:39:59;7.20;99.90
16995;DHT22;8614;48.522;9.206;2022-12-20T14:42:31;7.10;99.90
16995;DHT22;8614;48.522;9.206;2022-12-20T14:45:05;6.90;99.90
16995;DHT22;8614;48.522;9.206;2022-12-20T14:47:32;6.70;99.90
16995;DHT22;8614;48.522;9.206;2022-12-20T14:50:02;6.60;99.90
16995;DHT22;8614;48.522;9.206;2022-12-20T14:52:33;6.50;99.90
16995;DHT22;8614;48.522;9.206;2022-12-20T14:55:07;6.40;99.90
16995;DHT22;8614;48.522;9.206;2022-12-20T14:57:39;6.30;99.90
16995;DHT22;8614;48.522;9.206;2022-12-20T15:00:14;6.30;99.90
16995;DHT22;8614;48.522;9.206;2022-12-20T15:02:45;6.30;99.90
16995;DHT22;8614;48.522;9.206;2022-12-20T15:05:34;6.20;99.90
16995;DHT22;8614;48.522;9.206;2022-12-20T15:08:10;6.20;99.90
16995;DHT22;8614;48.522;9.206;2022-12-20T15:10:38;6.10;99.90
16995;DHT22;8614;48.522;9.206;2022-12-20T15:13:11;6.10;99.90
16995;DHT22;8614;48.522;9.206;2022-12-20T15:15:40;6.10;99.90
16995;DHT22;8614;48.522;9.206;2022-12-20T15:18:10;6.00;99.90
16995;DHT22;8614;48.522;9.206;2022-12-20T15:20:39;6.00;99.90
16995;DHT22;8614;48.522;9.206;2022-12-20T15:23:13;5.90;99.90
16995;DHT22;8614;48.522;9.206;2022-12-20T15:25:41;5.90;99.90
16995;DHT22;8614;48.522;9.206;2022-12-20T15:28:16;6.00;99.90
16995;DHT22;8614;48.522;9.206;2022-12-20T15:30:46;5.90;99.90
16995;DHT22;8614;48.522;9.206;2022-12-20T15:33:15;5.90;99.90
16995;DHT22;8614;48.522;9.206;2022-12-20T15:35:43;5.90;99.90
16995;DHT22;8614;48.522;9.206;2022-12-20T15:38:15;5.90;99.90
16995;DHT22;8614;48.522;9.206;2022-12-20T15:40:43;5.80;99.90
16995;DHT22;8614;48.522;9.206;2022-12-20T15:43:15;5.80;99.90
16995;DHT22;8614;48.522;9.206;2022-12-20T15:45:45;5.70;99.90
16995;DHT22;8614;48.522;9.206;2022-12-20T15:48:14;5.70;99.90
16995;DHT22;8614;48.522;9.206;2022-12-20T15:50:44;5.60;99.90
16995;DHT22;8614;48.522;9.206;2022-12-20T15:53:15;5.60;99.90
16995;DHT22;8614;48.522;9.206;2022-12-20T15:55:44;5.60;99.90
16995;DHT22;8614;48.522;9.206;2022-12-20T15:58:11;5.60;99.90
16995;DHT22;8614;48.522;9.206;2022-12-20T16:00:39;5.60;99.90
16995;DHT22;8614;48.522;9.206;2022-12-20T16:03:13;5.60;99.90
16995;DHT22;8614;48.522;9.206;2022-12-20T16:05:41;5.60;99.90
16995;DHT22;8614;48.522;9.206;2022-12-20T16:08:08;5.60;99.90
16995;DHT22;8614;48.522;9.206;2022-12-20T16:10:35;5.60;99.90
16995;DHT22;8614;48.522;9.206;2022-12-20T16:13:02;5.60;99.90
16995;DHT22;8614;48.522;9.206;2022-12-20T16:15:28;5.60;99.90
16995;DHT22;8614;48.522;9.206;2022-12-20T16:17:55;5.60;99.90
16995;DHT22;8614;48.522;9.206;2022-12-20T16:20:23;5.60;99.90
16995;DHT22;8614;48.522;9.206;2022-12-20T16:22:54;5.50;99.90
16995;DHT22;8614;48.522;9.206;2022-12-20T16:25:25;5.40;99.90
16995;DHT22;8614;48.522;9.206;2022-12-20T16:27:52;5.50;99.90
16995;DHT22;8614;48.522;9.206;2022-12-20T16:30:21;5.60;99.90
16995;DHT22;8614;48.522;9.206;2022-12-20T16:32:48;5.60;99.90
16995;DHT22;8614;48.522;9.206;2022-12-20T16:35:26;5.60;99.90
16995;DHT22;8614;48.522;9.206;2022-12-20T16:37:54;5.70;99.90
16995;DHT22;8614;48.522;9.206;2022-12-20T16:40:23;5.70;99.90
16995;DHT22;8614;48.522;9.206;2022-12-20T16:42:49;5.60;99.90
16995;DHT22;8614;48.522;9.206;2022-12-20T16:45:18;5.60;99.90
16995;DHT22;8614;48.522;9.206;2022-12-20T16:47:46;5.50;99.90
16995;DHT22;8614;48.522;9.206;2022-12-20T16:50:14;5.50;99.90
16995;DHT22;8614;48.522;9.206;2022-12-20T16:52:42;5.50;99.90
16995;DHT22;8614;48.522;9.206;2022-12-20T16:55:13;5.60;99.90
16995;DHT22;8614;48.522;9.206;2022-12-20T16:57:40;5.60;99.90
16995;DHT22;8614;48.522;9.206;2022-12-20T17:00:09;5.60;99.90
16995;DHT22;8614;48.522;9.206;2022-12-20T17:02:41;5.60;99.90
16995;DHT22;8614;48.522;9.206;2022-12-20T17:05:17;5.60;99.90
16995;DHT22;8614;48.522;9.206;2022-12-20T17:07:47;5.50;99.90
16995;DHT22;8614;48.522;9.206;2022-12-20T17:10:14;5.50;99.90
16995;DHT22;8614;48.522;9.206;2022-12-20T17:12:45;5.50;99.90
16995;DHT22;8614;48.522;9.206;2022-12-20T17:15:19;5.60;99.90
16995;DHT22;8614;48.522;9.206;2022-12-20T17:17:47;5.60;99.90
16995;DHT22;8614;48.522;9.206;2022-12-20T17:20:15;5.60;99.90
16995;DHT22;8614;48.522;9.206;2022-12-20T17:22:47;5.60;99.90
16995;DHT22;8614;48.522;9.206;2022-12-20T17:25:19;5.50;99.90
16995;DHT22;8614;48.522;9.206;2022-12-20T17:27:47;5.50;99.90
16995;DHT22;8614;48.522;9.206;2022-12-20T17:30:14;5.50;99.90
16995;DHT22;8614;48.522;9.206;2022-12-20T17:32:42;5.50;99.90
16995;DHT22;8614;48.522;9.206;2022-12-20T17:35:21;5.50;99.90
16995;DHT22;8614;48.522;9.206;2022-12-20T17:37:49;5.60;99.90
16995;DHT22;8614;48.522;9.206;2022-12-20T17:40:21;5.60;99.90
16995;DHT22;8614;48.522;9.206;2022-12-20T17:42:48;5.60;99.90
16995;DHT22;8614;48.522;9.206;2022-12-20T17:45:25;5.50;99.90
16995;DHT22;8614;48.522;9.206;2022-12-20T17:47:52;5.60;99.90
16995;DHT22;8614;48.522;9.206;2022-12-20T17:50:19;5.50;99.90
16995;DHT22;8614;48.522;9.206;2022-12-20T17:52:48;5.50;99.90
16995;DHT22;8614;48.522;9.206;2022-12-20T17:55:18;5.60;99.90
16995;DHT22;8614;48.522;9.206;2022-12-20T17:57:46;5.50;99.90
16995;DHT22;8614;48.522;9.206;2022-12-20T18:00:19;5.50;99.90
16995;DHT22;8614;48.522;9.206;2022-12-20T18:02:46;5.40;99.90
16995;DHT22;8614;48.522;9.206;2022-12-20T18:05:13;5.40;99.90
16995;DHT22;8614;48.522;9.206;2022-12-20T18:07:40;5.40;99.90
16995;DHT22;8614;48.522;9.206;2022-12-20T18:10:09;5.40;99.90
16995;DHT22;8614;48.522;9.206;2022-12-20T18:12:38;5.30;99.90
16995;DHT22;8614;48.522;9.206;2022-12-20T18:15:06;5.20;99.90
16995;DHT22;8614;48.522;9.206;2022-12-20T18:17:35;5.30;99.90
16995;DHT22;8614;48.522;9.206;2022-12-20T18:20:03;5.20;99.90
16995;DHT22;8614;48.522;9.206;2022-12-20T18:22:31;5.20;99.90
16995;DHT22;8614;48.522;9.206;2022-12-20T18:24:58;5.20;99.90
16995;DHT22;8614;48.522;9.206;2022-12-20T18:27:29;5.20;99.90
16995;DHT22;8614;48.522;9.206;2022-12-20T18:29:56;5.20;99.90
16995;DHT22;8614;48.522;9.206;2022-12-20T18:32:23;5.10;99.90
16995;DHT22;8614;48.522;9.206;2022-12-20T18:34:50;5.10;99.90
16995;DHT22;8614;48.522;9.206;2022-12-20T18:37:17;5.10;99.90
16995;DHT22;8614;48.522;9.206;2022-12-20T18:39:43;5.20;99.90
16995;DHT22;8614;48.522;9.206;2022-12-20T18:42:10;5.20;99.90
16995;DHT22;8614;48.522;9.206;2022-12-20T18:44:40;5.20;99.90
16995;DHT22;8614;48.522;9.206;2022-12-20T18:47:07;5.20;99.90
16995;DHT22;8614;48.522;9.206;2022-12-20T18:49:34;5.20;99.90
16995;DHT22;8614;48.522;9.206;2022-12-20T18:52:02;5.20;99.90
16995;DHT22;8614;48.522;9.206;2022-12-20T18:54:29;5.30;99.90
16995;DHT22;8614;48.522;9.206;2022-12-20T18:56:59;5.30;99.90
16995;DHT22;8614;48.522;9.206;2022-12-20T18:59:26;5.30;99.90
16995;DHT22;8614;48.522;9.206;2022-12-20T19:01:54;5.30;99.90
16995;DHT22;8614;48.522;9.206;2022-12-20T19:04:21;5.30;99.90
16995;DHT22;8614;48.522;9.206;2022-12-20T19:06:48;5.30;99.90
16995;DHT22;8614;48.522;9.206;2022-12-20T19:09:14;5.30;99.90
16995;DHT22;8614;48.522;9.206;2022-12-20T19:11:42;5.30;99.90
16995;DHT22;8614;48.522;9.206;2022-12-20T19:14:10;5.30;99.90
16995;DHT22;8614;48.522;9.206;2022-12-20T19:16:37;5.30;99.90
16995;DHT22;8614;48.522;9.206;2022-12-20T19:19:06;5.20;99.90
16995;DHT22;8614;48.522;9.206;2022-12-20T19:21:35;5.30;99.90
16995;DHT22;8614;48.522;9.206;2022-12-20T19:24:04;5.30;99.90
16995;DHT22;8614;48.522;9.206;2022-12-20T19:26:33;5.20;99.90
16995;DHT22;8614;48.522;9.206;2022-12-20T19:29:01;5.20;99.90
16995;DHT22;8614;48.522;9.206;2022-12-20T19:31:30;5.20;99.90
16995;DHT22;8614;48.522;9.206;2022-12-20T19:33:59;5.20;99.90
16995;DHT22;8614;48.522;9.206;2022-12-20T19:36:30;5.20;99.90
16995;DHT22;8614;48.522;9.206;2022-12-20T19:38:58;5.20;99.90
16995;DHT22;8614;48.522;9.206;2022-12-20T19:41:27;5.20;99.90
16995;DHT22;8614;48.522;9.206;2022-12-20T19:43:54;5.20;99.90